Time;durP1;ratioP1;P1;durP2;ratioP2;P2;SDS_P1;SDS_P2;PMS_P1;PMS_P2;Temp;Humidity;BMP_temperature;BMP_pressure;BME280_temperature;BME280_humidity;BME280_pressure;Samples;Min_cycle;Max_cycle;Signal;HPM_P1;HPM_P2
2024/02/16 08:35:45;;;;;;;0.20;0.20;;;;;;;20.52;32.41;76084.69;6317281;22;20035;-93
2024/02/16 08:40:47;;;;;;;0.20;0.20;;;;;;;20.15;32.66;76044.16;6380395;22;20024;-94
2024/02/16 08:43:13;;;;;;;0.20;0.20;;;;;;;20.63;32.29;76092.28;6364831;22;20014;-94
2024/02/16 09:08:57;;;;;;;0.20;0.20;;;;;;;20.74;34.59;76104.91;6353952;22;20050;-92
2024/02/16 09:11:23;;;;;;;0.20;0.20;;;;;;;21.05;33.67;76141.59;6326836;22;20046;-93
2024/02/16 09:13:49;;;;;;;0.20;0.20;;;;;;;21.27;32.60;76170.25;6343531;22;20014;-93
2024/02/16 09:16:17;;;;;;;0.10;0.10;;;;;;;21.26;33.67;76169.06;6294074;22;20013;-94
2024/02/16 09:24:20;;;;;;;0.20;0.20;;;;;;;22.08;31.98;76268.16;6342183;22;20027;-93
2024/02/16 09:34:41;;;;;;;0.20;0.20;;;;;;;20.14;34.98;76039.56;6312545;22;20023;-92
2024/02/16 09:37:08;;;;;;;0.20;0.20;;;;;;;20.93;33.56;76133.38;6283682;22;20069;-93
2024/02/16 09:42:28;;;;;;;0.20;0.20;;;;;;;20.83;34.18;76121.34;6315732;22;20092;-92
2024/02/16 09:44:54;;;;;;;0.20;0.20;;;;;;;19.96;35.16;76018.50;6286489;22;20007;-93
2024/02/16 09:47:22;;;;;;;0.20;0.20;;;;;;;20.34;34.64;76063.00;6306765;22;20007;-93
2024/02/16 09:49:48;;;;;;;0.20;0.20;;;;;;;21.10;34.00;76155.44;6307535;22;19999;-92
2024/02/16 09:52:14;;;;;;;0.20;0.20;;;;;;;22.03;32.57;76256.50;6308712;22;20006;-93
2024/02/16 09:54:40;;;;;;;0.20;0.20;;;;;;;21.91;32.42;76248.28;6308151;22;20090;-91
2024/02/16 09:57:06;;;;;;;0.17;0.17;;;;;;;21.87;33.15;76244.09;6307723;22;20003;-92
2024/02/16 09:59:32;;;;;;;0.10;0.10;;;;;;;22.16;32.68;76275.59;6312507;22;19999;-92
2024/02/16 10:02:07;;;;;;;0.20;0.20;;;;;;;21.85;32.65;76235.44;6310542;22;20485;-93
2024/02/16 10:04:32;;;;;;;0.20;0.20;;;;;;;21.49;32.31;76196.16;6316404;22;19999;-93
2024/02/16 10:23:22;;;;;;;0.20;0.20;;;;;;;20.35;36.92;76067.03;6329512;22;20025;-92
2024/02/16 10:25:47;;;;;;;0.20;0.20;;;;;;;20.76;35.05;76115.72;6316355;22;20454;-93
2024/02/16 10:31:10;;;;;;;0.20;0.20;;;;;;;21.14;33.94;76157.41;6344621;22;20025;-92
2024/02/16 10:33:52;;;;;;;0.20;0.20;;;;;;;20.59;34.51;76092.47;6330351;22;20007;-94
2024/02/16 10:36:17;;;;;;;0.10;0.10;;;;;;;21.25;34.02;76172.88;6323824;22;20022;-94
2024/02/16 10:38:45;;;;;;;0.20;0.20;;;;;;;21.43;33.77;76192.34;6316462;22;20037;-93
2024/02/16 10:41:11;;;;;;;0.20;0.20;;;;;;;21.81;32.83;76236.88;6320861;22;20007;-93
2024/02/16 10:43:39;;;;;;;0.20;0.20;;;;;;;21.36;33.90;76181.13;6317984;22;20082;-94
2024/02/16 10:46:06;;;;;;;0.20;0.20;;;;;;;21.76;34.99;76227.44;6315466;22;20007;-92
2024/02/16 10:48:32;;;;;;;0.20;0.20;;;;;;;21.19;35.31;76160.63;6314623;22;20007;-93
2024/02/16 10:50:58;;;;;;;0.20;0.20;;;;;;;20.79;37.34;76116.53;6341748;22;20048;-91
2024/02/16 10:53:28;;;;;;;0.10;0.10;;;;;;;21.10;37.49;76153.22;6316131;22;20003;-93
2024/02/16 10:55:59;;;;;;;0.20;0.20;;;;;;;20.92;38.03;76134.38;6318222;22;20086;-93
2024/02/16 10:58:49;;;;;;;0.20;0.20;;;;;;;20.69;37.97;76104.50;6320903;22;20060;-93
2024/02/16 11:01:22;;;;;;;0.17;0.17;;;;;;;20.70;38.94;76105.72;6349908;22;20648;-93
2024/02/16 11:03:48;;;;;;;0.20;0.20;;;;;;;20.58;38.68;76089.06;6291379;22;20015;-93
2024/02/16 11:06:17;;;;;;;0.20;0.20;;;;;;;20.38;38.78;76068.41;6316647;22;20030;-93
2024/02/16 11:08:43;;;;;;;0.10;0.10;;;;;;;20.78;38.08;76114.75;6290714;22;20037;-92
2024/02/16 11:11:12;;;;;;;0.20;0.20;;;;;;;20.63;37.90;76097.31;6317337;22;20011;-94
2024/02/16 11:13:39;;;;;;;0.20;0.20;;;;;;;20.62;37.77;76099.50;6317148;22;20033;-94
2024/02/16 11:16:09;;;;;;;0.10;0.10;;;;;;;20.53;38.21;76082.47;6315635;22;20013;-92
2024/02/16 11:21:18;;;;;;;;;;;;;;;20.55;37.79;76084.84;6309314;22;20030;-93
2024/02/16 11:37:01;;;;;;;0.20;0.20;;;;;;;20.50;39.03;76079.44;6325332;22;20416;-93
